Terminal Aerodrome Forecast
Issued by NWS

Current Version | Previous Version | Graphics & Text | Print | Product List | Glossary On
Versions: 1 2 3 4 5 6 7 8 9 10 11 12 13 14 15 16 17
784
FTUS41 KPBZ 211401 AAA
TAFHLG
TAF AMD
KHLG 211401Z 2114/2212 32004KT P6SM OVC015
     FM211600 32006KT P6SM BKN050
     FM220400 33010KT P6SM BKN100=

USA.gov is the U.S. government's official web portal to all federal, state and local government web resources and services.